Time;durP1;ratioP1;P1;durP2;ratioP2;P2;SDS_P1;SDS_P2;PMS_P1;PMS_P2;Temp;Humidity;BMP_temperature;BMP_pressure;BME280_temperature;BME280_humidity;BME280_pressure;Samples;Min_cycle;Max_cycle;Signal;HPM_P1;HPM_P2
2020/12/22 00:00:27;;;;;;;3.45;1.80;;;7.90;99.90;;;;;;4978819;28;20037;-69
2020/12/22 00:02:54;;;;;;;2.85;1.88;;;7.90;99.90;;;;;;4978915;28;20051;-67
2020/12/22 00:05:22;;;;;;;4.07;1.80;;;7.90;99.90;;;;;;4978465;28;20051;-67
2020/12/22 00:07:49;;;;;;;3.08;1.80;;;8.00;99.90;;;;;;4978479;28;20029;-67
2020/12/22 00:10:16;;;;;;;3.65;1.80;;;8.00;99.90;;;;;;4993522;28;20058;-67
2020/12/22 00:12:44;;;;;;;2.63;1.42;;;8.00;99.90;;;;;;4977785;28;20015;-67
2020/12/22 00:15:11;;;;;;;4.57;1.65;;;8.00;99.90;;;;;;4993185;28;20038;-67
2020/12/22 00:17:46;;;;;;;3.05;1.35;;;8.00;99.90;;;;;;4961137;28;20031;-67
2020/12/22 00:20:14;;;;;;;3.92;1.42;;;8.00;99.90;;;;;;4978536;28;20363;-67
2020/12/22 00:22:45;;;;;;;2.30;1.30;;;8.00;99.90;;;;;;4993203;28;20113;-67
2020/12/22 00:25:13;;;;;;;2.30;1.25;;;8.00;99.90;;;;;;4977899;28;20392;-69
2020/12/22 00:27:41;;;;;;;2.58;1.42;;;8.00;99.90;;;;;;4977968;28;20030;-69
2020/12/22 00:30:09;;;;;;;2.00;1.30;;;8.00;99.90;;;;;;4978030;28;20321;-69
2020/12/22 00:32:36;;;;;;;2.95;1.85;;;8.00;99.90;;;;;;4976858;28;20493;-69
2020/12/22 00:35:05;;;;;;;4.50;1.45;;;8.00;99.90;;;;;;4978211;28;20038;-69
2020/12/22 00:37:33;;;;;;;2.15;1.05;;;8.10;99.90;;;;;;4977857;28;20457;-69
2020/12/22 00:40:01;;;;;;;2.20;1.15;;;8.10;99.90;;;;;;4978528;28;20061;-69
2020/12/22 00:42:34;;;;;;;3.78;1.23;;;8.10;99.90;;;;;;4977785;28;20057;-69
2020/12/22 00:45:04;;;;;;;5.38;1.40;;;8.10;99.90;;;;;;4978041;28;20415;-69
2020/12/22 00:47:31;;;;;;;2.35;1.52;;;8.10;99.90;;;;;;4977709;28;20037;-67
2020/12/22 00:49:59;;;;;;;2.60;1.33;;;8.10;99.90;;;;;;4978384;28;20022;-67
2020/12/22 00:52:26;;;;;;;3.00;1.30;;;8.10;99.90;;;;;;4976644;28;20119;-68
2020/12/22 00:54:54;;;;;;;2.47;1.48;;;8.10;99.90;;;;;;4978706;28;20035;-69
2020/12/22 00:57:22;;;;;;;2.75;1.23;;;8.20;99.90;;;;;;4976565;28;20034;-67
2020/12/22 00:59:49;;;;;;;2.05;1.20;;;8.20;99.90;;;;;;4977589;28;20058;-67
2020/12/22 01:02:17;;;;;;;2.15;1.20;;;8.20;99.90;;;;;;4977738;28;20034;-67
2020/12/22 01:04:44;;;;;;;2.00;1.30;;;8.20;99.90;;;;;;4977091;28;20054;-67
2020/12/22 01:07:11;;;;;;;2.25;1.23;;;8.20;99.90;;;;;;4976390;28;20074;-67
2020/12/22 01:09:39;;;;;;;2.60;1.45;;;8.20;99.90;;;;;;4977508;28;20309;-67
2020/12/22 01:12:06;;;;;;;2.00;1.00;;;8.20;99.90;;;;;;4978043;28;20027;-67
2020/12/22 01:14:34;;;;;;;2.38;1.40;;;8.20;99.90;;;;;;4977983;28;20031;-67
2020/12/22 01:17:02;;;;;;;3.17;1.20;;;8.20;99.90;;;;;;4976510;28;20327;-67
2020/12/22 01:19:29;;;;;;;3.58;1.42;;;8.20;99.90;;;;;;4978749;28;20027;-67
2020/12/22 01:21:57;;;;;;;2.35;1.23;;;8.20;99.90;;;;;;4981423;28;20090;-67
2020/12/22 01:24:25;;;;;;;1.38;0.75;;;8.20;99.90;;;;;;4981141;28;20371;-67
2020/12/22 01:26:53;;;;;;;2.25;1.20;;;8.30;99.90;;;;;;4980170;28;20030;-67
2020/12/22 01:29:21;;;;;;;1.88;1.08;;;8.30;99.90;;;;;;4981027;28;20054;-67
2020/12/22 01:31:49;;;;;;;2.28;1.00;;;8.30;99.90;;;;;;4981833;28;20102;-67
2020/12/22 01:34:17;;;;;;;1.90;1.02;;;8.30;99.90;;;;;;4981068;28;20371;-67
2020/12/22 01:36:44;;;;;;;1.42;0.73;;;8.30;99.90;;;;;;4981085;28;20054;-67
2020/12/22 01:39:12;;;;;;;3.17;1.60;;;8.30;99.90;;;;;;4981006;28;20106;-67
2020/12/22 01:41:39;;;;;;;1.02;0.52;;;8.30;99.90;;;;;;4981116;28;20030;-67
2020/12/22 01:44:16;;;;;;;1.70;0.88;;;8.40;99.90;;;;;;4980724;28;20058;-67
2020/12/22 01:46:49;;;;;;;2.28;0.85;;;8.40;99.90;;;;;;4980899;28;20027;-67
2020/12/22 01:49:23;;;;;;;1.85;0.95;;;8.40;99.90;;;;;;4980775;28;20428;-67
2020/12/22 01:51:53;;;;;;;1.42;0.90;;;8.40;99.90;;;;;;4980973;28;20034;-67
2020/12/22 01:54:20;;;;;;;1.52;0.82;;;8.50;99.90;;;;;;4981161;28;20026;-67
2020/12/22 01:56:48;;;;;;;1.80;0.82;;;8.50;99.90;;;;;;4995863;28;20085;-67
2020/12/22 01:59:17;;;;;;;2.05;0.90;;;8.60;99.90;;;;;;4995715;28;20416;-67
2020/12/22 02:01:45;;;;;;;1.20;0.63;;;8.60;99.90;;;;;;4980776;28;20026;-67
2020/12/22 02:04:12;;;;;;;2.55;0.68;;;8.60;99.90;;;;;;4980985;28;20023;-67
2020/12/22 02:06:40;;;;;;;1.85;0.70;;;8.60;99.90;;;;;;4980280;28;20054;-67
2020/12/22 02:09:09;;;;;;;1.27;0.70;;;8.60;99.90;;;;;;4995543;28;20109;-67
2020/12/22 02:11:39;;;;;;;1.33;0.63;;;8.60;99.90;;;;;;4980514;28;20157;-67
2020/12/22 02:14:08;;;;;;;1.40;0.60;;;8.60;99.90;;;;;;4980283;28;20029;-67
2020/12/22 02:16:37;;;;;;;1.40;0.70;;;8.70;99.90;;;;;;4980343;28;20027;-67
2020/12/22 02:19:06;;;;;;;1.58;0.85;;;8.70;99.90;;;;;;4980795;28;20027;-67
2020/12/22 02:21:34;;;;;;;1.40;0.80;;;8.70;99.90;;;;;;4979454;28;20113;-67
2020/12/22 02:24:01;;;;;;;0.65;0.38;;;8.70;99.90;;;;;;4980643;28;20399;-67
2020/12/22 02:26:29;;;;;;;1.52;0.60;;;8.70;99.90;;;;;;4980602;28;20031;-67
2020/12/22 02:28:56;;;;;;;4.30;0.73;;;8.70;99.90;;;;;;4980121;28;20030;-67
2020/12/22 02:31:26;;;;;;;1.92;0.60;;;8.70;99.90;;;;;;4979644;28;20404;-67
2020/12/22 02:33:57;;;;;;;1.17;0.65;;;8.80;99.90;;;;;;4980593;28;20022;-67
2020/12/22 02:36:24;;;;;;;1.00;0.50;;;8.80;99.90;;;;;;4979982;28;20046;-67
2020/12/22 02:38:51;;;;;;;0.90;0.40;;;8.80;99.90;;;;;;4980336;28;20102;-67
2020/12/22 02:41:19;;;;;;;1.38;0.60;;;8.80;99.90;;;;;;4995052;28;20046;-67
2020/12/22 02:43:47;;;;;;;0.70;0.40;;;8.80;99.90;;;;;;4980403;28;20054;-67
2020/12/22 02:46:14;;;;;;;1.15;0.50;;;8.90;99.90;;;;;;4994898;28;20027;-67
2020/12/22 02:48:42;;;;;;;0.93;0.45;;;8.90;99.90;;;;;;4979933;28;20018;-67
2020/12/22 02:51:11;;;;;;;0.90;0.52;;;8.90;99.90;;;;;;4979711;28;20184;-67
2020/12/22 02:53:38;;;;;;;1.08;0.50;;;9.00;99.90;;;;;;4979635;28;20055;-67
2020/12/22 02:56:06;;;;;;;0.95;0.40;;;9.00;99.90;;;;;;4979637;28;20026;-67
2020/12/22 02:58:33;;;;;;;0.82;0.47;;;9.10;99.90;;;;;;4980055;28;20029;-67
2020/12/22 03:01:01;;;;;;;1.20;0.50;;;9.10;99.90;;;;;;4994637;28;20027;-67
2020/12/22 03:03:29;;;;;;;0.75;0.40;;;9.10;99.90;;;;;;4979463;28;20027;-66
2020/12/22 03:05:57;;;;;;;0.90;0.43;;;9.20;99.90;;;;;;4979128;28;20054;-67
2020/12/22 03:08:24;;;;;;;0.35;0.22;;;9.30;99.90;;;;;;4980078;28;20029;-67
2020/12/22 03:10:51;;;;;;;0.30;0.30;;;9.30;99.90;;;;;;4979922;28;20099;-67
2020/12/22 03:13:19;;;;;;;0.82;0.40;;;9.40;99.90;;;;;;4979875;28;20015;-67
2020/12/22 03:15:48;;;;;;;0.98;0.55;;;9.50;99.90;;;;;;4979199;28;20026;-67
2020/12/22 03:18:18;;;;;;;0.68;0.30;;;9.50;99.90;;;;;;4979940;28;20023;-67
2020/12/22 03:20:47;;;;;;;0.57;0.40;;;9.60;99.90;;;;;;4979146;28;20105;-66
2020/12/22 03:23:14;;;;;;;1.60;0.70;;;9.60;99.90;;;;;;4979128;28;20536;-67
2020/12/22 03:25:42;;;;;;;0.88;0.60;;;9.70;99.90;;;;;;4978574;28;20058;-67
2020/12/22 03:28:09;;;;;;;0.88;0.40;;;9.70;99.90;;;;;;4979462;28;20101;-67
2020/12/22 03:30:36;;;;;;;0.63;0.30;;;9.80;99.90;;;;;;4978893;28;20031;-67
2020/12/22 03:33:04;;;;;;;1.52;0.50;;;9.80;99.90;;;;;;4994169;28;20030;-67
2020/12/22 03:35:31;;;;;;;0.75;0.28;;;9.80;99.90;;;;;;4978881;28;20026;-67
2020/12/22 03:37:59;;;;;;;0.77;0.40;;;9.80;99.90;;;;;;4994144;28;20309;-67
2020/12/22 03:40:26;;;;;;;1.30;0.22;;;9.80;99.90;;;;;;4978763;28;20050;-67
2020/12/22 03:42:54;;;;;;;1.02;0.43;;;9.90;99.90;;;;;;4977030;28;20039;-67
2020/12/22 03:45:22;;;;;;;1.85;0.30;;;9.90;99.90;;;;;;4977586;28;20030;-67
2020/12/22 03:47:49;;;;;;;0.43;0.30;;;10.00;99.90;;;;;;4978652;28;20023;-67
2020/12/22 03:50:16;;;;;;;0.65;0.30;;;10.10;99.90;;;;;;4977690;28;20018;-66
2020/12/22 03:52:44;;;;;;;0.57;0.32;;;10.10;99.90;;;;;;4977697;28;20026;-67
2020/12/22 03:55:11;;;;;;;0.45;0.20;;;10.20;99.90;;;;;;4993664;28;20110;-67
2020/12/22 03:57:39;;;;;;;0.85;0.43;;;10.30;99.90;;;;;;4993646;28;20030;-67
2020/12/22 04:00:07;;;;;;;0.32;0.20;;;10.30;99.90;;;;;;4993448;28;20035;-67
2020/12/22 04:02:34;;;;;;;0.77;0.40;;;10.40;99.90;;;;;;4978556;28;20034;-67
2020/12/22 04:05:03;;;;;;;1.95;0.50;;;10.50;99.90;;;;;;4978272;28;20030;-67
2020/12/22 04:07:30;;;;;;;0.38;0.20;;;10.50;99.90;;;;;;4978116;28;20466;-67
2020/12/22 04:09:58;;;;;;;0.30;0.20;;;10.60;99.90;;;;;;4993402;28;20305;-67
2020/12/22 04:12:25;;;;;;;0.52;0.30;;;10.70;99.90;;;;;;4993574;28;20074;-66
2020/12/22 04:14:53;;;;;;;1.13;0.20;;;10.70;99.90;;;;;;4978182;28;20058;-66
2020/12/22 04:17:21;;;;;;;0.32;0.28;;;10.80;99.90;;;;;;4978262;28;20307;-67
2020/12/22 04:19:48;;;;;;;1.00;0.30;;;10.90;99.90;;;;;;4978662;28;20026;-67
2020/12/22 04:22:15;;;;;;;0.45;0.20;;;10.90;99.90;;;;;;4993470;28;20122;-67
2020/12/22 04:24:43;;;;;;;0.95;0.30;;;11.00;99.90;;;;;;4978008;28;20027;-67
2020/12/22 04:27:10;;;;;;;0.98;0.32;;;11.10;99.90;;;;;;4978023;28;20023;-67
2020/12/22 04:29:38;;;;;;;1.75;0.30;;;11.20;99.90;;;;;;4977955;28;20022;-67
2020/12/22 04:32:05;;;;;;;0.88;0.30;;;11.20;99.90;;;;;;4978223;28;20090;-67
2020/12/22 04:34:33;;;;;;;0.57;0.40;;;11.20;99.90;;;;;;4978475;28;20411;-67
2020/12/22 04:37:02;;;;;;;0.35;0.20;;;11.30;99.90;;;;;;4977899;28;20038;-67
2020/12/22 04:39:30;;;;;;;0.52;0.20;;;11.30;99.90;;;;;;4977844;28;20029;-67
2020/12/22 04:41:59;;;;;;;0.47;0.30;;;11.30;99.90;;;;;;4978303;28;20411;-67
2020/12/22 04:44:27;;;;;;;0.60;0.30;;;11.30;99.90;;;;;;4977607;28;20115;-67
2020/12/22 04:46:55;;;;;;;0.77;0.40;;;11.40;99.90;;;;;;4977923;28;20037;-67
2020/12/22 04:49:28;;;;;;;1.10;0.50;;;11.40;99.90;;;;;;4993102;28;20327;-67
2020/12/22 04:51:57;;;;;;;1.10;0.40;;;11.50;99.90;;;;;;4978445;28;20027;-67
2020/12/22 04:54:25;;;;;;;4.15;0.60;;;11.50;99.90;;;;;;4978096;28;20019;-67
2020/12/22 04:56:53;;;;;;;1.08;0.60;;;11.50;99.90;;;;;;4978436;28;20034;-67
2020/12/22 04:59:20;;;;;;;2.03;0.40;;;11.50;99.90;;;;;;4977548;28;20031;-67
2020/12/22 05:01:49;;;;;;;1.10;0.50;;;11.60;99.90;;;;;;4976643;28;20154;-67
2020/12/22 05:04:16;;;;;;;1.48;0.50;;;11.60;99.90;;;;;;4992682;28;20038;-67
2020/12/22 05:06:43;;;;;;;0.93;0.50;;;11.70;99.90;;;;;;4976028;28;20042;-67
2020/12/22 05:09:10;;;;;;;0.70;0.50;;;11.70;99.90;;;;;;4976329;28;20106;-67
2020/12/22 05:11:38;;;;;;;1.98;0.52;;;11.70;99.90;;;;;;4976684;28;20424;-67
2020/12/22 05:14:07;;;;;;;0.80;0.55;;;11.80;99.90;;;;;;4976560;28;20019;-67
2020/12/22 05:16:38;;;;;;;1.27;0.80;;;11.80;99.90;;;;;;4976843;28;20018;-67
2020/12/22 05:19:05;;;;;;;0.77;0.50;;;11.90;99.90;;;;;;4977137;28;20027;-67
2020/12/22 05:21:37;;;;;;;1.25;0.73;;;11.90;99.90;;;;;;4975541;28;20023;-67
2020/12/22 05:24:05;;;;;;;2.22;0.60;;;11.90;99.90;;;;;;4976457;28;20023;-67
2020/12/22 05:26:34;;;;;;;1.05;0.65;;;12.00;99.90;;;;;;4976676;28;20424;-67
2020/12/22 05:29:15;;;;;;;1.38;0.80;;;12.10;99.90;;;;;;4976500;28;20030;-67
2020/12/22 05:31:44;;;;;;;1.15;0.70;;;12.10;99.90;;;;;;4976359;28;20023;-67
2020/12/22 05:34:12;;;;;;;1.52;1.02;;;12.00;99.90;;;;;;4976379;28;20097;-67
2020/12/22 05:36:41;;;;;;;0.90;0.70;;;12.10;99.90;;;;;;4975645;28;20029;-67
2020/12/22 05:39:11;;;;;;;1.77;0.82;;;12.00;99.90;;;;;;4976919;28;20030;-67
2020/12/22 05:41:39;;;;;;;1.15;0.80;;;12.10;99.90;;;;;;4976851;28;20029;-67
2020/12/22 05:44:07;;;;;;;1.13;0.70;;;12.10;99.90;;;;;;4992135;28;20027;-67
2020/12/22 05:46:41;;;;;;;1.55;0.90;;;12.10;99.90;;;;;;4991650;28;20031;-67
2020/12/22 05:49:10;;;;;;;1.60;0.85;;;12.10;99.90;;;;;;4976226;28;20046;-67
2020/12/22 05:51:38;;;;;;;1.38;0.93;;;12.20;99.90;;;;;;4976265;28;20324;-67
2020/12/22 05:54:07;;;;;;;1.42;1.08;;;12.20;99.90;;;;;;4991291;28;20319;-67
2020/12/22 05:56:36;;;;;;;2.15;1.23;;;12.20;99.90;;;;;;4991531;28;20027;-67
2020/12/22 05:59:16;;;;;;;2.50;1.42;;;12.30;99.90;;;;;;4976120;28;20027;-67
2020/12/22 06:01:44;;;;;;;2.42;1.40;;;12.30;99.90;;;;;;4991316;28;20054;-67
2020/12/22 06:04:12;;;;;;;3.28;1.48;;;12.30;99.90;;;;;;4991094;28;20038;-67
2020/12/22 06:06:40;;;;;;;2.10;1.33;;;12.40;99.90;;;;;;4872010;28;3122149;-67
2020/12/22 06:09:08;;;;;;;7.43;2.03;;;12.40;99.90;;;;;;4981005;28;20023;-67
2020/12/22 06:11:38;;;;;;;2.30;1.70;;;12.40;99.90;;;;;;4980424;28;20039;-67
2020/12/22 06:14:06;;;;;;;2.83;1.90;;;12.40;99.90;;;;;;4980273;28;20023;-67
2020/12/22 06:16:34;;;;;;;2.53;2.00;;;12.40;99.90;;;;;;4980326;28;20034;-67
2020/12/22 06:19:02;;;;;;;3.50;1.70;;;12.40;99.90;;;;;;4979589;28;20096;-67
2020/12/22 06:21:30;;;;;;;2.60;1.80;;;12.50;99.90;;;;;;4980558;28;20023;-67
2020/12/22 06:23:57;;;;;;;2.35;1.70;;;12.50;99.90;;;;;;4979806;28;20019;-67
2020/12/22 06:26:25;;;;;;;2.20;1.60;;;12.50;99.90;;;;;;4995313;28;20142;-67
2020/12/22 06:28:52;;;;;;;2.53;1.55;;;12.50;99.90;;;;;;4980182;28;20015;-67
2020/12/22 06:31:33;;;;;;;2.90;1.95;;;12.50;99.90;;;;;;4980003;28;20055;-67
2020/12/22 06:34:01;;;;;;;3.88;1.92;;;12.60;99.90;;;;;;4979914;28;20105;-66
2020/12/22 06:36:31;;;;;;;1.90;1.48;;;12.60;99.90;;;;;;4979947;28;20027;-67
2020/12/22 06:39:00;;;;;;;2.58;1.55;;;12.70;99.90;;;;;;4979903;28;20105;-67
2020/12/22 06:41:39;;;;;;;2.92;1.90;;;12.70;99.90;;;;;;4979788;28;20335;-67
2020/12/22 06:44:28;;;;;;;2.40;1.55;;;12.70;99.90;;;;;;4980143;28;20403;-66
2020/12/22 06:46:56;;;;;;;2.22;1.42;;;12.70;99.90;;;;;;4994966;28;20037;-67
2020/12/22 06:49:41;;;;;;;3.42;1.63;;;12.60;99.90;;;;;;4979968;28;20481;-68
2020/12/22 06:52:27;;;;;;;2.38;1.45;;;12.50;99.90;;;;;;4995046;28;20077;-68
2020/12/22 06:54:55;;;;;;;2.95;1.05;;;12.40;99.90;;;;;;4979859;28;20446;-69
2020/12/22 06:57:48;;;;;;;2.85;1.75;;;12.40;99.90;;;;;;4979562;28;20042;-67
2020/12/22 07:00:31;;;;;;;5.85;2.53;;;12.40;99.90;;;;;;4979734;28;20431;-66
2020/12/22 07:03:17;;;;;;;7.72;2.83;;;12.50;99.90;;;;;;4980201;28;20041;-67
2020/12/22 07:05:49;;;;;;;4.78;1.60;;;12.40;99.90;;;;;;4979090;28;20134;-67
2020/12/22 07:08:18;;;;;;;5.55;1.83;;;12.30;99.90;;;;;;4979368;28;20034;-72
2020/12/22 07:10:47;;;;;;;3.13;1.98;;;12.30;99.90;;;;;;4994525;28;20058;-69
2020/12/22 07:13:18;;;;;;;4.55;1.92;;;12.20;99.90;;;;;;4979564;28;20026;-71
2020/12/22 07:15:50;;;;;;;8.82;2.08;;;12.20;99.90;;;;;;4979075;28;20073;-67
2020/12/22 07:18:32;;;;;;;3.28;1.75;;;12.20;99.90;;;;;;4993277;28;20108;-71
2020/12/22 07:21:00;;;;;;;2.95;1.83;;;12.20;99.90;;;;;;4979081;28;20035;-69
2020/12/22 07:23:28;;;;;;;2.80;1.95;;;12.10;99.90;;;;;;4979527;28;20037;-68
2020/12/22 07:25:59;;;;;;;3.65;1.73;;;12.20;99.90;;;;;;4979051;28;20081;-68
2020/12/22 07:28:27;;;;;;;6.05;1.80;;;12.20;99.90;;;;;;4979530;28;20032;-68
2020/12/22 07:30:55;;;;;;;4.65;2.00;;;12.10;99.90;;;;;;4978938;28;20023;-67
2020/12/22 07:33:23;;;;;;;3.63;1.98;;;12.20;99.90;;;;;;4979405;28;20427;-68
2020/12/22 07:35:50;;;;;;;2.40;1.73;;;12.10;99.90;;;;;;4978875;28;20059;-67
2020/12/22 07:38:18;;;;;;;4.50;1.85;;;12.20;99.90;;;;;;4978968;28;20372;-68
2020/12/22 07:40:46;;;;;;;3.83;1.95;;;12.10;99.90;;;;;;4978719;28;20043;-67
2020/12/22 07:43:15;;;;;;;3.03;2.38;;;12.20;99.90;;;;;;4993883;28;20037;-68
2020/12/22 07:45:50;;;;;;;3.42;2.53;;;12.20;99.90;;;;;;4978490;28;20058;-69
2020/12/22 07:48:19;;;;;;;4.55;2.78;;;12.20;99.90;;;;;;4978825;28;20419;-68
2020/12/22 07:50:56;;;;;;;4.65;2.83;;;12.20;99.90;;;;;;4978940;28;20035;-68
2020/12/22 07:53:23;;;;;;;4.53;3.30;;;12.20;99.90;;;;;;4979154;28;20025;-67
2020/12/22 07:55:51;;;;;;;3.67;3.00;;;12.20;99.90;;;;;;4977618;28;20030;-68
2020/12/22 07:58:20;;;;;;;3.45;2.55;;;12.20;99.90;;;;;;4978706;28;20058;-68
2020/12/22 08:00:47;;;;;;;2.92;2.10;;;12.30;99.90;;;;;;4978451;28;20423;-67
2020/12/22 08:03:16;;;;;;;3.60;2.65;;;12.30;99.90;;;;;;4977820;28;20069;-68
2020/12/22 08:06:05;;;;;;;3.50;2.50;;;12.30;99.90;;;;;;4978062;28;20050;-67
2020/12/22 08:08:34;;;;;;;5.32;2.58;;;12.40;99.90;;;;;;4978624;28;20019;-67
2020/12/22 08:11:01;;;;;;;4.30;2.88;;;12.50;99.90;;;;;;4978909;28;20023;-68
2020/12/22 08:13:32;;;;;;;2.80;2.30;;;12.60;99.90;;;;;;4978321;28;20023;-66
2020/12/22 08:16:00;;;;;;;2.55;1.92;;;12.60;99.90;;;;;;4977136;28;20062;-68
2020/12/22 08:18:33;;;;;;;3.22;2.55;;;12.70;99.90;;;;;;4978726;28;20319;-68
2020/12/22 08:21:01;;;;;;;4.15;2.30;;;12.70;99.90;;;;;;4993310;28;20092;-67
2020/12/22 08:23:29;;;;;;;5.50;2.42;;;12.70;99.90;;;;;;4993510;28;20046;-69
2020/12/22 08:25:58;;;;;;;3.78;2.88;;;12.70;99.90;;;;;;4977990;28;20031;-66
2020/12/22 08:28:27;;;;;;;3.33;2.80;;;12.70;99.90;;;;;;4977826;28;20038;-66
2020/12/22 08:30:55;;;;;;;3.63;2.67;;;12.70;99.90;;;;;;4977927;28;20450;-66
2020/12/22 08:33:23;;;;;;;3.72;2.95;;;12.70;99.90;;;;;;4978840;28;20031;-66
2020/12/22 08:35:54;;;;;;;5.85;2.63;;;12.70;99.90;;;;;;4978330;28;20022;-66
2020/12/22 08:38:26;;;;;;;3.85;2.75;;;12.70;99.90;;;;;;4978660;28;20432;-67
2020/12/22 08:40:56;;;;;;;3.28;2.55;;;12.70;99.90;;;;;;4992990;28;20113;-66
2020/12/22 08:43:25;;;;;;;2.92;2.47;;;12.70;99.90;;;;;;4977829;28;20034;-67
2020/12/22 08:45:53;;;;;;;2.90;2.30;;;12.80;99.90;;;;;;4977716;28;20101;-66
2020/12/22 08:48:20;;;;;;;5.10;2.63;;;12.80;99.90;;;;;;4977755;28;20037;-66
2020/12/22 08:50:53;;;;;;;3.58;2.67;;;12.80;99.90;;;;;;4978064;28;20046;-67
2020/12/22 08:53:22;;;;;;;3.28;2.70;;;12.70;99.90;;;;;;4977677;28;20407;-67
2020/12/22 08:56:05;;;;;;;4.15;3.28;;;12.70;99.90;;;;;;4976688;28;20041;-67
2020/12/22 08:58:33;;;;;;;3.90;3.10;;;12.70;99.90;;;;;;4977649;28;20050;-66
2020/12/22 09:01:19;;;;;;;3.20;2.90;;;12.70;99.90;;;;;;4977646;28;20023;-66
2020/12/22 09:03:52;;;;;;;8.38;3.05;;;12.70;99.90;;;;;;4977596;28;20098;-67
2020/12/22 09:06:32;;;;;;;4.25;3.45;;;12.70;99.90;;;;;;4977306;28;20051;-67
2020/12/22 09:09:08;;;;;;;5.63;3.00;;;12.70;99.90;;;;;;4992714;28;20106;-66
2020/12/22 09:11:36;;;;;;;;;;;12.70;99.90;;;;;;4978121;28;20037;-67
2020/12/22 09:14:09;;;;;;;4.10;2.80;;;12.70;99.90;;;;;;4978117;28;19941;-67
2020/12/22 09:16:56;;;;;;;3.55;2.70;;;12.60;99.90;;;;;;4977557;28;20030;-67
2020/12/22 09:19:51;;;;;;;4.68;3.63;;;12.60;99.90;;;;;;4977869;28;20025;-67
2020/12/22 09:22:31;;;;;;;5.43;3.50;;;12.60;99.90;;;;;;4978000;28;20366;-67
2020/12/22 09:25:01;;;;;;;5.95;3.90;;;12.60;99.90;;;;;;4977697;28;20315;-67
2020/12/22 09:27:31;;;;;;;4.70;3.92;;;12.60;99.90;;;;;;4977507;28;20359;-68
2020/12/22 09:30:01;;;;;;;5.90;4.18;;;12.60;99.90;;;;;;4977733;28;20418;-66
2020/12/22 09:32:30;;;;;;;5.13;3.72;;;12.70;99.90;;;;;;4977625;28;20037;-67
2020/12/22 09:34:58;;;;;;;6.03;3.35;;;12.70;99.90;;;;;;4977396;28;20101;-67
2020/12/22 09:37:27;;;;;;;3.00;2.40;;;12.80;99.90;;;;;;4976500;28;20031;-67
2020/12/22 09:39:54;;;;;;;3.97;2.55;;;12.90;99.90;;;;;;4978081;28;20027;-67
2020/12/22 09:42:24;;;;;;;3.33;2.95;;;13.00;99.90;;;;;;4981488;28;20374;-67
2020/12/22 09:44:52;;;;;;;2.65;2.08;;;13.00;99.90;;;;;;4981662;28;20049;-67
2020/12/22 09:47:20;;;;;;;3.10;2.00;;;13.00;99.90;;;;;;4996300;28;20023;-67
2020/12/22 09:49:49;;;;;;;4.82;2.30;;;13.10;99.90;;;;;;4982101;28;20021;-67
2020/12/22 09:52:16;;;;;;;4.32;2.72;;;13.00;99.90;;;;;;4981405;28;20121;-67
2020/12/22 09:54:43;;;;;;;3.08;2.35;;;13.10;99.90;;;;;;4980290;28;20070;-67
2020/12/22 09:57:11;;;;;;;3.17;2.40;;;13.10;99.90;;;;;;4981971;28;20027;-68
2020/12/22 09:59:38;;;;;;;3.50;2.63;;;13.10;99.90;;;;;;4981337;28;20031;-67
2020/12/22 10:02:06;;;;;;;3.10;2.80;;;13.10;99.90;;;;;;4996518;28;20026;-67
2020/12/22 10:04:37;;;;;;;2.97;2.70;;;13.10;99.90;;;;;;4980632;28;20373;-66
2020/12/22 10:07:06;;;;;;;4.93;2.88;;;13.20;99.90;;;;;;4979572;28;20105;-67
2020/12/22 10:09:34;;;;;;;3.30;2.72;;;13.20;99.90;;;;;;4981119;28;20053;-67
2020/12/22 10:12:05;;;;;;;3.30;2.67;;;13.20;99.90;;;;;;4980704;28;20030;-68
2020/12/22 10:14:33;;;;;;;2.35;2.13;;;13.30;99.90;;;;;;4980262;28;20026;-68
2020/12/22 10:17:02;;;;;;;2.85;2.33;;;13.30;99.90;;;;;;4995599;28;20023;-66
2020/12/22 10:19:29;;;;;;;3.38;2.42;;;13.30;99.90;;;;;;4980356;28;20315;-66
2020/12/22 10:21:57;;;;;;;5.70;3.10;;;13.30;99.90;;;;;;4979429;28;20035;-66
2020/12/22 10:24:25;;;;;;;3.05;2.75;;;13.20;99.90;;;;;;4980192;28;20019;-66
2020/12/22 10:26:53;;;;;;;3.20;2.65;;;13.10;99.90;;;;;;4980266;28;20304;-66
2020/12/22 10:29:21;;;;;;;5.43;2.85;;;12.90;99.90;;;;;;4980767;28;20034;-67
2020/12/22 10:31:50;;;;;;;6.47;3.42;;;12.90;99.90;;;;;;4980258;28;20327;-66
2020/12/22 10:34:18;;;;;;;6.28;3.03;;;12.80;99.90;;;;;;4980672;28;20403;-66
2020/12/22 10:36:49;;;;;;;4.25;3.00;;;12.70;99.90;;;;;;4980134;28;20030;-67
2020/12/22 10:39:16;;;;;;;3.35;2.67;;;12.70;99.90;;;;;;4980034;28;20023;-66
2020/12/22 10:41:44;;;;;;;3.60;2.05;;;12.70;99.90;;;;;;4980031;28;20031;-67
2020/12/22 10:44:13;;;;;;;1.77;1.50;;;12.70;99.90;;;;;;4980116;28;20027;-66
2020/12/22 10:46:40;;;;;;;1.92;1.50;;;12.70;99.90;;;;;;4980194;28;20314;-66
2020/12/22 10:49:09;;;;;;;2.92;1.48;;;12.70;99.90;;;;;;4978922;28;20049;-66
2020/12/22 10:51:36;;;;;;;2.00;0.90;;;12.70;99.90;;;;;;4979765;28;20184;-67
2020/12/22 10:54:05;;;;;;;2.33;1.27;;;12.70;99.90;;;;;;4980335;28;20106;-67
2020/12/22 10:56:33;;;;;;;2.58;1.17;;;12.70;99.90;;;;;;4979660;28;20033;-67
2020/12/22 10:59:00;;;;;;;2.40;1.00;;;12.70;99.90;;;;;;4979664;28;20445;-66
2020/12/22 11:01:28;;;;;;;3.92;1.08;;;12.70;99.90;;;;;;4979615;28;20027;-66
2020/12/22 11:03:56;;;;;;;1.70;0.90;;;12.80;99.90;;;;;;4994793;28;20042;-67
2020/12/22 11:06:40;;;;;;;4.38;1.00;;;12.70;99.90;;;;;;4979262;28;20130;-67
2020/12/22 11:09:09;;;;;;;1.70;1.05;;;12.60;99.90;;;;;;4980268;28;20031;-67
2020/12/22 11:11:36;;;;;;;2.25;0.90;;;12.60;99.90;;;;;;4994743;28;20027;-67
2020/12/22 11:14:04;;;;;;;2.17;0.93;;;12.60;99.90;;;;;;4994623;28;20030;-67
2020/12/22 11:16:32;;;;;;;8.52;1.13;;;12.60;99.90;;;;;;4979844;28;20026;-66
2020/12/22 11:19:00;;;;;;;1.75;0.70;;;12.70;99.90;;;;;;4979598;28;20030;-67
2020/12/22 11:21:28;;;;;;;1.45;0.90;;;12.80;99.90;;;;;;4979329;28;20018;-67
2020/12/22 11:23:55;;;;;;;2.60;0.73;;;12.80;99.90;;;;;;4979194;28;20031;-66
2020/12/22 11:26:25;;;;;;;2.72;0.60;;;12.90;99.90;;;;;;4994608;28;20031;-66
2020/12/22 11:28:53;;;;;;;2.00;0.80;;;13.00;99.90;;;;;;4979168;28;20031;-66
2020/12/22 11:31:21;;;;;;;2.03;0.52;;;13.00;99.90;;;;;;4979065;28;20033;-67
2020/12/22 11:33:49;;;;;;;2.28;0.95;;;13.00;99.90;;;;;;4994238;28;20481;-66
2020/12/22 11:36:18;;;;;;;0.85;0.50;;;13.00;99.90;;;;;;4994319;28;20039;-66
2020/12/22 11:38:46;;;;;;;1.45;0.40;;;13.00;99.90;;;;;;4979523;28;20023;-67
2020/12/22 11:41:20;;;;;;;1.92;1.15;;;13.00;99.90;;;;;;4979380;28;20058;-67
2020/12/22 11:43:49;;;;;;;5.65;0.80;;;13.10;99.90;;;;;;4978851;28;20081;-66
2020/12/22 11:46:17;;;;;;;0.80;0.40;;;13.10;99.90;;;;;;4978886;28;20427;-68
2020/12/22 11:48:45;;;;;;;1.05;0.40;;;13.10;99.90;;;;;;4979063;28;20461;-68
2020/12/22 11:51:15;;;;;;;2.10;0.60;;;13.10;99.90;;;;;;4979338;28;20441;-67
2020/12/22 11:53:43;;;;;;;2.88;0.70;;;13.10;99.90;;;;;;4978962;28;20054;-67
2020/12/22 11:56:11;;;;;;;0.70;0.45;;;13.10;99.90;;;;;;4978789;28;20023;-67
2020/12/22 11:58:40;;;;;;;1.35;0.50;;;13.00;99.90;;;;;;4979616;28;20077;-67
2020/12/22 12:01:07;;;;;;;1.30;0.60;;;13.00;99.90;;;;;;4978365;28;20023;-67
2020/12/22 12:03:35;;;;;;;2.75;0.73;;;13.00;99.90;;;;;;4978732;28;20109;-67
2020/12/22 12:06:02;;;;;;;1.88;0.60;;;13.00;99.90;;;;;;4977467;28;20070;-67
2020/12/22 12:08:30;;;;;;;1.27;0.57;;;12.90;99.90;;;;;;4978613;28;20411;-67
2020/12/22 12:10:58;;;;;;;1.73;0.75;;;12.90;99.90;;;;;;4993488;28;20030;-67
2020/12/22 12:13:25;;;;;;;1.50;0.65;;;12.90;99.90;;;;;;4978523;28;20081;-67
2020/12/22 12:15:53;;;;;;;1.38;0.80;;;12.80;99.90;;;;;;4978926;28;20038;-66
2020/12/22 12:18:21;;;;;;;3.22;0.82;;;12.60;99.90;;;;;;4977177;28;20034;-67
2020/12/22 12:20:48;;;;;;;2.17;0.90;;;12.50;99.90;;;;;;4978713;28;20023;-67
2020/12/22 12:23:16;;;;;;;1.52;0.80;;;12.40;99.90;;;;;;4978345;28;20110;-67
2020/12/22 12:25:44;;;;;;;2.13;1.02;;;12.20;99.90;;;;;;4978352;28;20030;-67
2020/12/22 12:28:12;;;;;;;3.28;1.45;;;12.10;99.90;;;;;;4978097;28;20027;-67
2020/12/22 12:30:39;;;;;;;1.58;0.88;;;12.10;99.90;;;;;;4978523;28;20285;-67
2020/12/22 12:33:06;;;;;;;1.77;0.88;;;12.00;99.90;;;;;;4978434;28;20023;-67
2020/12/22 12:35:34;;;;;;;1.95;0.77;;;12.00;99.90;;;;;;4977947;28;20030;-67
2020/12/22 12:38:02;;;;;;;1.10;0.60;;;11.90;99.90;;;;;;4993084;28;20053;-67
2020/12/22 12:40:30;;;;;;;1.20;0.50;;;11.90;99.90;;;;;;4977934;28;20103;-67
2020/12/22 12:42:57;;;;;;;1.42;0.65;;;11.90;99.90;;;;;;4977910;28;20034;-67
2020/12/22 12:45:26;;;;;;;1.58;0.60;;;11.80;99.90;;;;;;4976826;28;20019;-67
2020/12/22 12:47:54;;;;;;;1.05;0.70;;;11.80;99.90;;;;;;4978561;28;20027;-67
2020/12/22 12:50:21;;;;;;;0.65;0.30;;;11.80;99.90;;;;;;4977695;28;20030;-67
2020/12/22 12:52:49;;;;;;;0.65;0.32;;;11.80;99.90;;;;;;4978298;28;20030;-67
2020/12/22 12:55:17;;;;;;;1.75;0.73;;;11.80;99.90;;;;;;4977695;28;20094;-67
2020/12/22 12:57:45;;;;;;;1.40;0.70;;;11.80;99.90;;;;;;4978427;28;20035;-67
2020/12/22 13:00:13;;;;;;;1.67;1.10;;;11.80;99.90;;;;;;4977626;28;20139;-67